createdAt,value
2016-12-31T00:00:12.317Z,8
2016-12-31T00:01:12.325Z,8
2016-12-31T00:02:12.318Z,9
2016-12-31T00:03:12.324Z,8
2016-12-31T00:04:12.329Z,9
2016-12-31T00:05:12.337Z,9
2016-12-31T00:06:12.386Z,8
2016-12-31T00:07:12.324Z,9
2016-12-31T00:08:12.339Z,9
2016-12-31T00:09:12.337Z,9
2016-12-31T00:10:12.395Z,8
2016-12-31T00:11:12.330Z,9
2016-12-31T00:12:12.336Z,8
2016-12-31T00:13:12.418Z,8
2016-12-31T00:14:12.395Z,9
2016-12-31T00:15:12.356Z,9
2016-12-31T00:16:12.339Z,9
2016-12-31T00:17:12.334Z,8
2016-12-31T00:18:12.337Z,9
2016-12-31T00:19:12.353Z,8
2016-12-31T00:20:12.345Z,8
2016-12-31T00:21:12.339Z,8
2016-12-31T00:22:12.347Z,9
2016-12-31T00:23:12.352Z,8
2016-12-31T00:24:12.345Z,9
2016-12-31T00:25:12.344Z,9
2016-12-31T00:26:12.345Z,8
2016-12-31T00:27:12.342Z,9
2016-12-31T00:28:12.341Z,8
2016-12-31T00:29:14.053Z,8
2016-12-31T00:30:14.164Z,10
2016-12-31T00:31:13.908Z,8
2016-12-31T00:32:12.365Z,9
2016-12-31T00:33:13.892Z,9
2016-12-31T00:34:13.795Z,9
2016-12-31T00:35:13.932Z,8
2016-12-31T00:36:13.851Z,10
2016-12-31T00:37:12.352Z,9
2016-12-31T00:38:13.811Z,9
2016-12-31T00:39:14.050Z,9
2016-12-31T00:40:14.008Z,9
2016-12-31T00:41:13.973Z,9
2016-12-31T00:42:14.036Z,8
2016-12-31T00:43:14.072Z,8
2016-12-31T00:44:13.858Z,8
2016-12-31T00:45:13.927Z,9
2016-12-31T00:46:14.089Z,8
2016-12-31T00:47:13.988Z,10
2016-12-31T00:48:14.426Z,9
2016-12-31T00:49:14.744Z,8
2016-12-31T00:50:14.744Z,9
2016-12-31T00:51:14.846Z,8
2016-12-31T00:52:14.708Z,9
2016-12-31T00:53:13.753Z,9
2016-12-31T00:54:13.736Z,8
2016-12-31T00:55:13.867Z,9
2016-12-31T00:56:13.748Z,9
2016-12-31T00:57:13.735Z,9
2016-12-31T00:58:12.381Z,8
2016-12-31T00:59:12.375Z,8
2016-12-31T01:00:12.381Z,9
2016-12-31T01:01:12.376Z,9
2016-12-31T01:02:12.383Z,9
2016-12-31T01:03:12.385Z,9
2016-12-31T01:04:12.378Z,8
2016-12-31T01:05:12.385Z,9
2016-12-31T01:06:12.384Z,8
2016-12-31T01:07:12.381Z,9
2016-12-31T01:08:12.381Z,8
2016-12-31T01:09:12.382Z,9
2016-12-31T01:10:12.438Z,9
2016-12-31T01:11:12.386Z,9
2016-12-31T01:12:12.387Z,8
2016-12-31T01:13:12.387Z,8
2016-12-31T01:14:12.395Z,9
2016-12-31T01:15:12.400Z,9
2016-12-31T01:16:12.394Z,8
2016-12-31T01:17:12.399Z,9
2016-12-31T01:18:12.402Z,9
2016-12-31T01:19:12.399Z,9
2016-12-31T01:20:12.398Z,9
2016-12-31T01:21:12.414Z,8
2016-12-31T01:22:12.404Z,9
2016-12-31T01:23:12.404Z,8
2016-12-31T01:24:12.414Z,9
2016-12-31T01:25:12.404Z,9
2016-12-31T01:26:12.410Z,9
2016-12-31T01:27:12.405Z,8
2016-12-31T01:28:12.414Z,8
2016-12-31T01:29:12.422Z,8
2016-12-31T01:30:12.412Z,9
2016-12-31T01:31:12.414Z,9
2016-12-31T01:32:12.411Z,9
2016-12-31T01:33:12.423Z,9
2016-12-31T01:34:12.413Z,9
2016-12-31T01:35:12.412Z,8
2016-12-31T01:36:12.411Z,8
2016-12-31T01:37:12.420Z,9
2016-12-31T01:38:12.419Z,9
2016-12-31T01:39:12.418Z,9
2016-12-31T01:40:12.424Z,9
2016-12-31T01:41:12.417Z,8
2016-12-31T01:42:12.422Z,9
2016-12-31T01:43:12.429Z,9
2016-12-31T01:44:12.422Z,9
2016-12-31T01:45:12.429Z,9
2016-12-31T01:46:12.422Z,8
2016-12-31T01:47:12.427Z,8
2016-12-31T01:48:12.433Z,8
2016-12-31T01:49:12.425Z,8
2016-12-31T01:50:12.433Z,9
2016-12-31T01:51:12.425Z,9
2016-12-31T01:52:12.431Z,9
2016-12-31T01:53:12.430Z,9
2016-12-31T01:54:12.445Z,8
2016-12-31T01:55:12.437Z,9
2016-12-31T01:56:12.435Z,9
2016-12-31T01:57:12.441Z,8
2016-12-31T01:58:12.432Z,9
2016-12-31T01:59:12.442Z,8
2016-12-31T02:00:12.447Z,9
2016-12-31T02:01:12.438Z,8
2016-12-31T02:02:12.443Z,9
2016-12-31T02:03:12.436Z,8
2016-12-31T02:04:12.457Z,9
2016-12-31T02:05:12.435Z,8
2016-12-31T02:06:12.457Z,8
2016-12-31T02:07:12.448Z,9
2016-12-31T02:08:12.455Z,9
2016-12-31T02:09:12.449Z,9
2016-12-31T02:10:12.453Z,9
2016-12-31T02:11:12.449Z,9
2016-12-31T02:12:12.491Z,9
2016-12-31T02:13:12.448Z,8
2016-12-31T02:14:12.465Z,9
2016-12-31T02:15:12.468Z,9
2016-12-31T02:16:12.482Z,8
2016-12-31T02:17:12.463Z,8
2016-12-31T02:18:12.468Z,8
2016-12-31T02:19:12.457Z,9
2016-12-31T02:20:12.459Z,9
2016-12-31T02:21:12.477Z,9
2016-12-31T02:22:12.463Z,8
2016-12-31T02:23:12.474Z,9
2016-12-31T02:24:12.482Z,9
2016-12-31T02:25:12.475Z,9
2016-12-31T02:26:12.474Z,8
2016-12-31T02:27:12.469Z,9
2016-12-31T02:28:12.472Z,9
2016-12-31T02:29:12.478Z,9
2016-12-31T02:30:12.467Z,9
2016-12-31T02:31:12.485Z,9
2016-12-31T02:32:12.468Z,9
2016-12-31T02:33:12.480Z,9
2016-12-31T02:34:12.493Z,9
2016-12-31T02:35:12.490Z,9
2016-12-31T02:36:12.473Z,9
2016-12-31T02:37:12.469Z,9
2016-12-31T02:38:12.494Z,8
2016-12-31T02:39:12.481Z,8
2016-12-31T02:40:12.497Z,8
2016-12-31T02:41:12.477Z,9
2016-12-31T02:42:12.475Z,9
2016-12-31T02:43:12.484Z,9
2016-12-31T02:44:12.481Z,9
2016-12-31T02:45:12.484Z,9
2016-12-31T02:46:12.481Z,9
2016-12-31T02:47:12.478Z,9
2016-12-31T02:48:12.484Z,9
2016-12-31T02:49:12.478Z,8
2016-12-31T02:50:12.484Z,10
2016-12-31T02:51:12.489Z,9
2016-12-31T02:52:12.484Z,9
2016-12-31T02:53:12.486Z,9
2016-12-31T02:54:12.493Z,8
2016-12-31T02:55:12.487Z,9
2016-12-31T02:56:12.493Z,9
2016-12-31T02:57:12.486Z,9
2016-12-31T02:58:12.492Z,10
2016-12-31T02:59:12.499Z,10
2016-12-31T03:00:12.491Z,8
2016-12-31T03:01:12.493Z,8
2016-12-31T03:02:12.491Z,9
2016-12-31T03:03:12.493Z,9
2016-12-31T03:04:12.499Z,9
2016-12-31T03:05:12.495Z,9
2016-12-31T03:06:12.498Z,8
2016-12-31T03:07:12.505Z,9
2016-12-31T03:08:12.497Z,9
2016-12-31T03:09:12.498Z,10
2016-12-31T03:10:12.501Z,9
2016-12-31T03:11:12.503Z,9
2016-12-31T03:12:12.510Z,10
2016-12-31T03:13:12.503Z,10
2016-12-31T03:14:12.500Z,10
2016-12-31T03:15:12.509Z,10
2016-12-31T03:16:12.507Z,9
2016-12-31T03:17:12.509Z,10
2016-12-31T03:18:12.506Z,9
2016-12-31T03:19:12.506Z,10
2016-12-31T03:20:12.509Z,10
2016-12-31T03:21:12.517Z,10
2016-12-31T03:22:12.522Z,10
2016-12-31T03:23:12.513Z,10
2016-12-31T03:24:12.520Z,9
2016-12-31T03:25:12.511Z,9
2016-12-31T03:26:12.517Z,10
2016-12-31T03:27:12.531Z,11
2016-12-31T03:28:12.517Z,10
2016-12-31T03:29:12.525Z,9
2016-12-31T03:30:12.517Z,10
2016-12-31T03:31:12.524Z,10
2016-12-31T03:32:12.523Z,10
2016-12-31T03:33:12.524Z,10
2016-12-31T03:34:12.527Z,10
2016-12-31T03:35:12.528Z,10
2016-12-31T03:36:12.530Z,10
2016-12-31T03:37:12.533Z,10
2016-12-31T03:38:12.525Z,10
2016-12-31T03:39:12.533Z,10
2016-12-31T03:40:12.533Z,10
2016-12-31T03:41:12.547Z,11
2016-12-31T03:42:12.538Z,11
2016-12-31T03:43:12.546Z,10
2016-12-31T03:44:12.538Z,11
2016-12-31T03:45:12.551Z,11
2016-12-31T03:46:12.537Z,10
2016-12-31T03:47:12.544Z,10
2016-12-31T03:48:12.539Z,10
2016-12-31T03:49:12.557Z,11
2016-12-31T03:50:12.553Z,10
2016-12-31T03:51:12.544Z,10
2016-12-31T03:52:12.539Z,11
2016-12-31T03:53:12.557Z,11
2016-12-31T03:54:12.549Z,11
2016-12-31T03:55:12.569Z,11
2016-12-31T03:56:12.547Z,10
2016-12-31T03:57:12.547Z,10
2016-12-31T03:58:12.546Z,11
2016-12-31T03:59:12.558Z,11
2016-12-31T04:00:12.545Z,10
2016-12-31T04:01:12.553Z,11
2016-12-31T04:02:12.559Z,11
2016-12-31T04:03:12.555Z,11
2016-12-31T04:04:12.567Z,11
2016-12-31T04:05:12.552Z,11
2016-12-31T04:06:12.561Z,12
2016-12-31T04:07:12.567Z,11
2016-12-31T04:08:12.558Z,11
2016-12-31T04:09:12.562Z,12
2016-12-31T04:10:12.569Z,11
2016-12-31T04:11:12.562Z,11
2016-12-31T04:12:12.559Z,11
2016-12-31T04:13:12.566Z,12
2016-12-31T04:14:12.572Z,11
2016-12-31T04:15:12.564Z,11
2016-12-31T04:16:12.573Z,11
2016-12-31T04:17:12.579Z,12
2016-12-31T04:18:12.570Z,12
2016-12-31T04:19:12.578Z,11
2016-12-31T04:20:12.569Z,12
2016-12-31T04:21:12.576Z,12
2016-12-31T04:22:12.570Z,12
2016-12-31T04:23:12.574Z,12
2016-12-31T04:24:12.584Z,12
2016-12-31T04:25:12.582Z,12
2016-12-31T04:26:12.582Z,12
2016-12-31T04:27:12.586Z,12
2016-12-31T04:28:12.578Z,12
2016-12-31T04:29:12.585Z,12
2016-12-31T04:30:12.586Z,12
2016-12-31T04:31:12.584Z,12
2016-12-31T04:32:12.590Z,13
2016-12-31T04:33:12.583Z,13
2016-12-31T04:34:12.586Z,12
2016-12-31T04:35:12.591Z,13
2016-12-31T04:36:12.594Z,13
2016-12-31T04:37:12.591Z,13
2016-12-31T04:38:12.595Z,13
2016-12-31T04:39:12.583Z,12
2016-12-31T04:40:12.591Z,13
2016-12-31T04:41:12.587Z,12
2016-12-31T04:42:12.590Z,12
2016-12-31T04:43:12.598Z,13
2016-12-31T04:44:12.596Z,12
2016-12-31T04:45:12.599Z,14
2016-12-31T04:46:12.591Z,13
2016-12-31T04:47:12.594Z,13
2016-12-31T04:48:12.602Z,13
2016-12-31T04:49:12.609Z,13
2016-12-31T04:50:12.600Z,13
2016-12-31T04:51:12.606Z,13
2016-12-31T04:52:12.606Z,13
2016-12-31T04:53:12.613Z,14
2016-12-31T04:54:12.605Z,13
2016-12-31T04:55:12.620Z,14
2016-12-31T04:56:12.603Z,13
2016-12-31T04:57:12.610Z,13
2016-12-31T04:58:12.616Z,13
2016-12-31T04:59:12.608Z,13
2016-12-31T05:00:12.617Z,13
2016-12-31T05:01:12.608Z,13
2016-12-31T05:02:12.628Z,14
2016-12-31T05:03:12.608Z,14
2016-12-31T05:04:12.612Z,14
2016-12-31T05:05:12.620Z,14
2016-12-31T05:06:12.612Z,14
2016-12-31T05:07:12.619Z,13
2016-12-31T05:08:12.619Z,14
2016-12-31T05:09:12.626Z,14
2016-12-31T05:10:12.618Z,14
2016-12-31T05:11:12.626Z,14
2016-12-31T05:12:12.617Z,14
2016-12-31T05:13:12.624Z,14
2016-12-31T05:14:12.626Z,14
2016-12-31T05:15:12.618Z,14
2016-12-31T05:16:12.639Z,14
2016-12-31T05:17:12.622Z,15
2016-12-31T05:18:12.627Z,14
2016-12-31T05:19:12.629Z,15
2016-12-31T05:20:12.628Z,14
2016-12-31T05:21:12.630Z,16
2016-12-31T05:22:12.626Z,14
2016-12-31T05:23:12.635Z,14
2016-12-31T05:24:12.637Z,15
2016-12-31T05:25:12.633Z,13
2016-12-31T05:26:12.642Z,14
2016-12-31T05:27:12.639Z,15
2016-12-31T05:28:12.642Z,14
2016-12-31T05:29:12.639Z,14
2016-12-31T05:30:12.641Z,15
2016-12-31T05:31:12.640Z,15
2016-12-31T05:32:12.644Z,15
2016-12-31T05:33:12.647Z,15
2016-12-31T05:34:12.661Z,15
2016-12-31T05:35:12.645Z,13
2016-12-31T05:36:12.639Z,15
2016-12-31T05:37:12.659Z,14
2016-12-31T05:38:12.651Z,15
2016-12-31T05:39:12.658Z,14
2016-12-31T05:40:12.650Z,15
2016-12-31T05:41:12.650Z,15
2016-12-31T05:42:12.657Z,15
2016-12-31T05:43:12.660Z,15
2016-12-31T05:44:12.651Z,14
2016-12-31T05:45:12.656Z,15
2016-12-31T05:46:12.663Z,15
2016-12-31T05:47:12.664Z,16
2016-12-31T05:48:12.662Z,14
2016-12-31T05:49:12.663Z,15
2016-12-31T05:50:12.653Z,15
2016-12-31T05:51:12.660Z,14
2016-12-31T05:52:12.653Z,15
2016-12-31T05:53:12.665Z,14
2016-12-31T05:54:12.660Z,15
2016-12-31T05:55:12.664Z,14
2016-12-31T05:56:12.667Z,16
2016-12-31T05:57:12.674Z,14
2016-12-31T05:58:12.679Z,16
2016-12-31T05:59:12.685Z,15
2016-12-31T06:00:12.673Z,15
2016-12-31T06:01:12.678Z,15
2016-12-31T06:02:12.670Z,14
2016-12-31T06:03:12.673Z,15
2016-12-31T06:04:12.664Z,15
2016-12-31T06:05:12.673Z,15
2016-12-31T06:06:12.669Z,15
2016-12-31T06:07:12.684Z,16
2016-12-31T06:08:12.677Z,15
2016-12-31T06:09:12.672Z,15
2016-12-31T06:10:12.672Z,15
2016-12-31T06:11:12.678Z,16
2016-12-31T06:12:12.674Z,15
2016-12-31T06:13:12.671Z,16
2016-12-31T06:14:12.676Z,15
2016-12-31T06:15:12.671Z,15
2016-12-31T06:16:12.679Z,16
2016-12-31T06:17:12.686Z,16
2016-12-31T06:18:12.676Z,16
2016-12-31T06:19:12.695Z,15
2016-12-31T06:20:12.681Z,15
2016-12-31T06:21:12.710Z,15
2016-12-31T06:22:12.680Z,16
2016-12-31T06:23:12.680Z,16
2016-12-31T06:24:12.687Z,15
2016-12-31T06:25:12.694Z,16
2016-12-31T06:26:12.686Z,15
2016-12-31T06:27:12.686Z,16
2016-12-31T06:28:12.700Z,15
2016-12-31T06:29:12.683Z,16
2016-12-31T06:30:12.690Z,15
2016-12-31T06:31:12.694Z,16
2016-12-31T06:32:12.690Z,16
2016-12-31T06:33:12.696Z,16
2016-12-31T06:34:12.697Z,16
2016-12-31T06:35:12.695Z,16
2016-12-31T06:36:12.695Z,16
2016-12-31T06:37:12.702Z,16
2016-12-31T06:38:12.702Z,17
2016-12-31T06:39:12.701Z,16
2016-12-31T06:40:12.745Z,16
2016-12-31T06:41:12.700Z,17
2016-12-31T06:42:12.698Z,16
2016-12-31T06:43:12.707Z,17
2016-12-31T06:44:12.717Z,17
2016-12-31T06:45:12.710Z,16
2016-12-31T06:46:12.710Z,17
2016-12-31T06:47:12.724Z,16
2016-12-31T06:48:12.711Z,16
2016-12-31T06:49:12.716Z,16
2016-12-31T06:50:12.712Z,16
2016-12-31T06:51:12.723Z,16
2016-12-31T06:52:12.718Z,17
2016-12-31T06:53:12.718Z,16
2016-12-31T06:54:12.721Z,16
2016-12-31T06:55:12.712Z,16
2016-12-31T06:56:12.723Z,17
2016-12-31T06:57:12.722Z,15
2016-12-31T06:58:12.717Z,17
2016-12-31T06:59:12.723Z,15
2016-12-31T07:00:12.717Z,17
2016-12-31T07:01:12.718Z,16
2016-12-31T07:02:12.722Z,16
2016-12-31T07:03:12.725Z,16
2016-12-31T07:04:12.734Z,17
2016-12-31T07:05:12.728Z,17
2016-12-31T07:06:12.739Z,15
2016-12-31T07:07:12.723Z,16
2016-12-31T07:08:12.725Z,17
2016-12-31T07:09:12.737Z,16
2016-12-31T07:10:12.736Z,16
2016-12-31T07:11:12.744Z,17
2016-12-31T07:12:12.734Z,16
2016-12-31T07:13:12.742Z,16
2016-12-31T07:14:12.733Z,15
2016-12-31T07:15:12.738Z,16
2016-12-31T07:16:12.742Z,17
2016-12-31T07:17:12.740Z,17
2016-12-31T07:18:12.742Z,17
2016-12-31T07:19:12.761Z,16
2016-12-31T07:20:12.744Z,16
2016-12-31T07:21:12.748Z,17
2016-12-31T07:22:12.744Z,17
2016-12-31T07:23:12.751Z,17
2016-12-31T07:24:12.746Z,17
2016-12-31T07:25:12.743Z,16
2016-12-31T07:26:12.756Z,16
2016-12-31T07:27:12.754Z,17
2016-12-31T07:28:12.757Z,18
2016-12-31T07:29:12.754Z,17
2016-12-31T07:30:12.745Z,16
2016-12-31T07:31:12.753Z,17
2016-12-31T07:32:12.750Z,17
2016-12-31T07:33:12.752Z,17
2016-12-31T07:34:12.750Z,15
2016-12-31T07:35:12.752Z,17
2016-12-31T07:36:12.759Z,17
2016-12-31T07:37:12.751Z,16
2016-12-31T07:38:12.759Z,16
2016-12-31T07:39:12.757Z,17
2016-12-31T07:40:12.757Z,17
2016-12-31T07:41:12.765Z,17
2016-12-31T07:42:12.760Z,18
2016-12-31T07:43:12.762Z,17
2016-12-31T07:44:12.764Z,17
2016-12-31T07:45:12.786Z,17
2016-12-31T07:46:12.764Z,17
2016-12-31T07:47:12.772Z,17
2016-12-31T07:48:12.768Z,17
2016-12-31T07:49:12.776Z,18
2016-12-31T07:50:12.767Z,17
2016-12-31T07:51:12.767Z,17
2016-12-31T07:52:12.773Z,16
2016-12-31T07:53:12.780Z,19
2016-12-31T07:54:12.783Z,17
2016-12-31T07:55:12.792Z,17
2016-12-31T07:56:12.776Z,18
2016-12-31T07:57:12.802Z,18
2016-12-31T07:58:12.782Z,17
2016-12-31T07:59:12.792Z,17
2016-12-31T08:00:12.781Z,17
2016-12-31T08:01:12.798Z,17
2016-12-31T08:02:12.782Z,16
2016-12-31T08:03:12.784Z,17
2016-12-31T08:04:12.797Z,17
2016-12-31T08:05:12.788Z,17
2016-12-31T08:06:12.792Z,18
2016-12-31T08:07:12.788Z,17
2016-12-31T08:08:12.792Z,17
2016-12-31T08:09:12.803Z,18
2016-12-31T08:10:12.789Z,17
2016-12-31T08:11:12.797Z,16
2016-12-31T08:12:12.802Z,15
2016-12-31T08:13:12.797Z,16
2016-12-31T08:14:12.800Z,17
2016-12-31T08:15:12.798Z,16
2016-12-31T08:16:12.800Z,17
2016-12-31T08:17:12.808Z,16
2016-12-31T08:18:12.800Z,17
2016-12-31T08:19:12.815Z,16
2016-12-31T08:20:12.813Z,16
2016-12-31T08:21:12.817Z,15
2016-12-31T08:22:12.812Z,16
2016-12-31T08:23:12.809Z,16
2016-12-31T08:24:12.811Z,17
2016-12-31T08:25:12.820Z,16
2016-12-31T08:26:12.812Z,17
2016-12-31T08:27:12.892Z,16
2016-12-31T08:28:12.810Z,17
2016-12-31T08:29:12.817Z,16
2016-12-31T08:30:12.824Z,16
2016-12-31T08:31:12.816Z,16
2016-12-31T08:32:12.853Z,16
2016-12-31T08:33:12.821Z,17
2016-12-31T08:34:12.824Z,16
2016-12-31T08:35:12.831Z,16
2016-12-31T08:36:12.827Z,17
2016-12-31T08:37:12.818Z,15
2016-12-31T08:38:12.826Z,17
2016-12-31T08:39:12.833Z,16
2016-12-31T08:40:12.830Z,17
2016-12-31T08:41:12.832Z,17
2016-12-31T08:42:12.837Z,16
2016-12-31T08:43:12.830Z,18
2016-12-31T08:44:12.828Z,17
2016-12-31T08:45:12.846Z,16
2016-12-31T08:46:12.833Z,16
2016-12-31T08:47:12.834Z,16
2016-12-31T08:48:12.836Z,16
2016-12-31T08:49:12.832Z,16
2016-12-31T08:50:12.849Z,16
2016-12-31T08:51:12.840Z,16
2016-12-31T08:52:12.838Z,16
2016-12-31T08:53:12.841Z,16
2016-12-31T08:54:12.848Z,15
2016-12-31T08:55:12.846Z,17
2016-12-31T08:56:12.846Z,17
2016-12-31T08:57:12.851Z,17
2016-12-31T08:58:12.845Z,16
2016-12-31T08:59:12.842Z,16
2016-12-31T09:00:12.866Z,16
2016-12-31T09:01:12.857Z,15
2016-12-31T09:02:12.848Z,16
2016-12-31T09:03:12.846Z,16
2016-12-31T09:04:12.850Z,16
2016-12-31T09:05:12.869Z,16
2016-12-31T09:06:12.854Z,16
2016-12-31T09:07:12.854Z,15
2016-12-31T09:08:12.860Z,17
2016-12-31T09:09:12.859Z,17
2016-12-31T09:10:12.866Z,19
2016-12-31T09:11:12.858Z,19
2016-12-31T09:12:12.866Z,18
2016-12-31T09:13:12.869Z,19
2016-12-31T09:14:12.865Z,21
2016-12-31T09:15:12.865Z,24
2016-12-31T09:16:12.871Z,28
2016-12-31T09:17:12.863Z,27
2016-12-31T09:18:12.871Z,30
2016-12-31T09:19:12.863Z,32
2016-12-31T09:20:12.887Z,32
2016-12-31T09:21:12.879Z,30
2016-12-31T09:22:12.870Z,33
2016-12-31T09:23:12.871Z,35
2016-12-31T09:24:12.876Z,32
2016-12-31T09:25:12.881Z,33
2016-12-31T09:26:12.876Z,32
2016-12-31T09:27:12.879Z,30
2016-12-31T09:28:12.885Z,30
2016-12-31T09:29:12.893Z,29
2016-12-31T09:30:12.921Z,31
2016-12-31T09:31:12.890Z,29
2016-12-31T09:32:12.881Z,30
2016-12-31T09:33:12.881Z,32
2016-12-31T09:34:12.881Z,32
2016-12-31T09:35:12.919Z,31
2016-12-31T09:36:12.890Z,30
2016-12-31T09:37:12.886Z,31
2016-12-31T09:38:12.946Z,31
2016-12-31T09:39:12.898Z,32
2016-12-31T09:40:12.925Z,31
2016-12-31T09:41:12.898Z,30
2016-12-31T09:42:12.890Z,31
2016-12-31T09:43:12.891Z,30
2016-12-31T09:44:12.898Z,29
2016-12-31T09:45:12.903Z,30
2016-12-31T09:46:12.900Z,30
2016-12-31T09:47:12.895Z,31
2016-12-31T09:48:12.898Z,30
2016-12-31T09:49:12.902Z,29
2016-12-31T09:50:12.917Z,30
2016-12-31T09:51:12.934Z,30
2016-12-31T09:52:12.929Z,29
2016-12-31T09:53:12.953Z,30
2016-12-31T09:54:12.935Z,30
2016-12-31T09:55:12.937Z,29
2016-12-31T09:56:12.918Z,30
2016-12-31T09:57:12.952Z,30
2016-12-31T09:58:12.912Z,29
2016-12-31T09:59:12.943Z,29
2016-12-31T10:00:12.963Z,28
2016-12-31T10:01:12.910Z,28
2016-12-31T10:02:12.918Z,28
2016-12-31T10:03:12.916Z,27
2016-12-31T10:04:12.922Z,27
2016-12-31T10:05:12.916Z,27
2016-12-31T10:06:12.913Z,27
2016-12-31T10:07:12.912Z,27
2016-12-31T10:08:12.914Z,28
2016-12-31T10:09:12.935Z,28
2016-12-31T10:10:12.937Z,28
2016-12-31T10:11:12.913Z,28
2016-12-31T10:12:12.914Z,27
2016-12-31T10:13:12.920Z,28
2016-12-31T10:14:12.920Z,27
2016-12-31T10:15:12.922Z,28
2016-12-31T10:16:12.928Z,26
2016-12-31T10:17:12.925Z,26
2016-12-31T10:18:12.925Z,27
2016-12-31T10:19:12.922Z,26
2016-12-31T10:20:12.933Z,28
2016-12-31T10:21:12.928Z,25
2016-12-31T10:22:12.935Z,26
2016-12-31T10:23:12.924Z,26
2016-12-31T10:24:12.931Z,25
2016-12-31T10:25:12.929Z,27
2016-12-31T10:26:12.934Z,25
2016-12-31T10:27:12.943Z,26
2016-12-31T10:28:12.930Z,24
2016-12-31T10:29:12.936Z,26
2016-12-31T10:30:12.928Z,25
2016-12-31T10:31:12.935Z,26
2016-12-31T10:32:12.946Z,27
2016-12-31T10:33:12.950Z,26
2016-12-31T10:34:12.943Z,25
2016-12-31T10:35:12.947Z,25
2016-12-31T10:36:12.939Z,25
2016-12-31T10:37:12.946Z,24
2016-12-31T10:38:12.939Z,24
2016-12-31T10:39:12.946Z,25
2016-12-31T10:40:12.955Z,24
2016-12-31T10:41:12.945Z,25
2016-12-31T10:42:12.950Z,25
2016-12-31T10:43:13.031Z,24
2016-12-31T10:44:12.964Z,24
2016-12-31T10:45:12.990Z,24
2016-12-31T10:46:12.956Z,25
2016-12-31T10:47:12.961Z,24
2016-12-31T10:48:12.949Z,24
2016-12-31T10:49:12.948Z,25
2016-12-31T10:50:12.953Z,24
2016-12-31T10:51:12.960Z,25
2016-12-31T10:52:12.953Z,23
2016-12-31T10:53:12.957Z,24
2016-12-31T10:54:12.953Z,24
2016-12-31T10:55:12.957Z,24
2016-12-31T10:56:12.963Z,24
2016-12-31T10:57:12.956Z,24
2016-12-31T10:58:12.959Z,23
2016-12-31T10:59:12.966Z,24
2016-12-31T11:00:12.965Z,24
2016-12-31T11:01:12.978Z,22
2016-12-31T11:02:12.970Z,24
2016-12-31T11:03:12.964Z,23
2016-12-31T11:04:12.965Z,22
2016-12-31T11:05:12.972Z,23
2016-12-31T11:06:12.977Z,23
2016-12-31T11:07:12.967Z,23
2016-12-31T11:08:12.973Z,23
2016-12-31T11:09:12.969Z,24
2016-12-31T11:10:12.977Z,23
2016-12-31T11:11:12.968Z,22
2016-12-31T11:12:12.973Z,22
2016-12-31T11:13:12.981Z,23
2016-12-31T11:14:12.975Z,22
2016-12-31T11:15:12.977Z,22
2016-12-31T11:16:12.976Z,22
2016-12-31T11:17:12.974Z,21
2016-12-31T11:18:12.980Z,22
2016-12-31T11:19:12.980Z,21
2016-12-31T11:20:12.988Z,21
2016-12-31T11:21:12.989Z,22
2016-12-31T11:22:12.985Z,22
2016-12-31T11:23:12.986Z,22
2016-12-31T11:24:12.991Z,23
2016-12-31T11:25:12.992Z,23
2016-12-31T11:26:12.984Z,22
2016-12-31T11:27:12.985Z,21
2016-12-31T11:28:12.997Z,23
2016-12-31T11:29:12.990Z,24
2016-12-31T11:30:12.994Z,22
2016-12-31T11:31:13.018Z,22
2016-12-31T11:32:12.996Z,22
2016-12-31T11:33:13.000Z,23
2016-12-31T11:34:13.005Z,22
2016-12-31T11:35:13.000Z,21
2016-12-31T11:36:12.990Z,22
2016-12-31T11:37:12.997Z,20
2016-12-31T11:38:13.003Z,22
2016-12-31T11:39:12.998Z,22
2016-12-31T11:40:13.003Z,21
2016-12-31T11:41:13.012Z,22
2016-12-31T11:42:13.004Z,21
2016-12-31T11:43:13.012Z,21
2016-12-31T11:44:13.002Z,22
2016-12-31T11:45:13.016Z,22
2016-12-31T11:46:13.013Z,21
2016-12-31T11:47:13.037Z,21
2016-12-31T11:48:13.011Z,22
2016-12-31T11:49:13.071Z,22
2016-12-31T11:50:13.012Z,21
2016-12-31T11:51:13.068Z,21
2016-12-31T11:52:13.007Z,22
2016-12-31T11:53:13.115Z,22
2016-12-31T11:54:13.068Z,21
2016-12-31T11:55:13.024Z,21
2016-12-31T11:56:13.055Z,20
2016-12-31T11:57:13.025Z,20
2016-12-31T11:58:13.078Z,21
2016-12-31T11:59:13.024Z,21
2016-12-31T12:00:13.025Z,21
2016-12-31T12:01:13.037Z,21
2016-12-31T12:02:13.021Z,21
2016-12-31T12:03:13.019Z,21
2016-12-31T12:04:13.018Z,20
2016-12-31T12:05:13.026Z,20
2016-12-31T12:06:13.070Z,21
2016-12-31T12:07:13.024Z,20
2016-12-31T12:08:13.101Z,20
2016-12-31T12:09:13.039Z,21
2016-12-31T12:10:13.026Z,21
2016-12-31T12:11:13.086Z,21
2016-12-31T12:12:13.029Z,22
2016-12-31T12:13:13.068Z,21
2016-12-31T12:14:13.028Z,21
2016-12-31T12:15:13.031Z,21
2016-12-31T12:16:13.106Z,21
2016-12-31T12:17:13.038Z,22
2016-12-31T12:18:13.036Z,22
2016-12-31T12:19:13.036Z,20
2016-12-31T12:20:13.043Z,22
2016-12-31T12:21:13.110Z,23
2016-12-31T12:22:13.041Z,21
2016-12-31T12:23:13.034Z,22
2016-12-31T12:24:13.040Z,22
2016-12-31T12:25:13.045Z,22
2016-12-31T12:26:13.042Z,22
2016-12-31T12:27:13.051Z,20
2016-12-31T12:28:13.063Z,21
2016-12-31T12:29:13.053Z,22
2016-12-31T12:30:13.053Z,21
2016-12-31T12:31:13.053Z,23
2016-12-31T12:32:13.054Z,22
2016-12-31T12:33:13.096Z,22
2016-12-31T12:34:13.071Z,22
2016-12-31T12:35:13.048Z,22
2016-12-31T12:36:13.067Z,20
2016-12-31T12:37:13.051Z,23
2016-12-31T12:38:13.053Z,21
2016-12-31T12:40:38.239Z,0
2016-12-31T12:41:38.109Z,22
2016-12-31T12:42:38.151Z,22
2016-12-31T12:43:37.963Z,22
2016-12-31T12:44:37.994Z,23
2016-12-31T12:45:38.052Z,23
2016-12-31T12:46:38.236Z,23
2016-12-31T12:47:37.605Z,23
2016-12-31T12:48:39.592Z,23
2016-12-31T12:49:38.358Z,22
2016-12-31T12:50:37.754Z,23
2016-12-31T12:51:36.787Z,22
2016-12-31T12:52:36.633Z,22
2016-12-31T12:53:36.635Z,23
2016-12-31T12:54:36.634Z,23
2016-12-31T12:55:36.630Z,21
2016-12-31T12:56:36.641Z,22
2016-12-31T12:57:36.645Z,22
2016-12-31T12:58:36.641Z,23
2016-12-31T12:59:36.634Z,22
2016-12-31T13:00:36.640Z,23
2016-12-31T13:01:36.647Z,22
2016-12-31T13:02:36.645Z,21
2016-12-31T13:03:36.644Z,21
2016-12-31T13:04:36.642Z,21
2016-12-31T13:05:36.640Z,22
2016-12-31T13:06:36.648Z,22
2016-12-31T13:07:36.646Z,21
2016-12-31T13:08:36.648Z,22
2016-12-31T13:09:36.677Z,21
2016-12-31T13:10:36.649Z,21
2016-12-31T13:11:36.671Z,23
2016-12-31T13:12:36.651Z,22
2016-12-31T13:13:36.653Z,22
2016-12-31T13:14:36.659Z,22
2016-12-31T13:15:36.653Z,22
2016-12-31T13:16:36.659Z,23
2016-12-31T13:17:36.652Z,21
2016-12-31T13:18:36.658Z,21
2016-12-31T13:19:36.660Z,20
2016-12-31T13:20:36.658Z,21
2016-12-31T13:21:36.658Z,22
2016-12-31T13:22:36.678Z,23
2016-12-31T13:23:36.673Z,22
2016-12-31T13:24:36.675Z,23
2016-12-31T13:25:36.671Z,21
2016-12-31T13:26:36.670Z,22
2016-12-31T13:27:36.662Z,22
2016-12-31T13:28:36.661Z,20
2016-12-31T13:29:36.674Z,22
2016-12-31T13:30:36.675Z,21
2016-12-31T13:31:36.666Z,21
2016-12-31T13:32:36.667Z,21
2016-12-31T13:33:36.670Z,21
2016-12-31T13:34:36.670Z,20
2016-12-31T13:35:36.672Z,21
2016-12-31T13:36:36.680Z,20
2016-12-31T13:37:37.105Z,21
2016-12-31T13:38:36.678Z,22
2016-12-31T13:39:36.681Z,21
2016-12-31T13:40:36.690Z,22
2016-12-31T13:41:36.919Z,22
2016-12-31T13:42:36.687Z,21
2016-12-31T13:43:36.685Z,21
2016-12-31T13:44:36.686Z,21
2016-12-31T13:45:36.687Z,21
2016-12-31T13:46:36.683Z,22
2016-12-31T13:47:36.693Z,22
2016-12-31T13:48:36.828Z,21
2016-12-31T13:49:36.684Z,21
2016-12-31T13:50:36.692Z,21
2016-12-31T13:51:36.805Z,21
2016-12-31T13:52:37.000Z,22
2016-12-31T13:53:36.700Z,21
2016-12-31T13:54:36.702Z,21
2016-12-31T13:55:36.700Z,22
2016-12-31T13:56:36.699Z,21
2016-12-31T13:57:36.696Z,21
2016-12-31T13:58:36.697Z,20
2016-12-31T13:59:36.705Z,22
2016-12-31T14:00:36.715Z,21
2016-12-31T14:01:36.705Z,21
2016-12-31T14:02:36.712Z,21
2016-12-31T14:03:36.705Z,21
2016-12-31T14:04:36.819Z,21
2016-12-31T14:05:36.794Z,20
2016-12-31T14:06:36.716Z,22
2016-12-31T14:07:36.715Z,21
2016-12-31T14:08:36.720Z,21
2016-12-31T14:09:36.709Z,22
2016-12-31T14:10:36.715Z,21
2016-12-31T14:11:36.710Z,20
2016-12-31T14:12:36.715Z,20
2016-12-31T14:13:36.722Z,20
2016-12-31T14:14:36.712Z,20
2016-12-31T14:15:36.719Z,20
2016-12-31T14:16:36.715Z,21
2016-12-31T14:17:36.841Z,20
2016-12-31T14:18:36.715Z,20
2016-12-31T14:19:36.722Z,20
2016-12-31T14:20:36.720Z,20
2016-12-31T14:21:36.726Z,21
2016-12-31T14:22:36.735Z,19
2016-12-31T14:23:36.728Z,21